Time,TemperatureF,DewpointF,PressureIn,WindDirection,WindDirectionDegrees,WindSpeedMPH,WindSpeedGustMPH,Humidity,HourlyPrecipIn,Conditions,Clouds,dailyrainin,SoftwareType,DateUTC
2013-11-01 00:12:00,55.0,53.0,30.32,SSW,201,0.0,0.0,93,0.00,,,0.00,,2013-11-01 07:12:00,
2013-11-01 00:21:00,55.0,53.0,30.32,SSW,201,0.0,0.0,93,0.00,,,0.00,,2013-11-01 07:21:00,
2013-11-01 00:42:00,54.0,52.0,30.31,SSW,201,0.0,0.0,93,0.00,,,0.00,,2013-11-01 07:42:00,
2013-11-01 00:52:00,54.0,52.0,30.31,SSW,201,0.0,0.0,93,0.00,,,0.00,,2013-11-01 07:52:00,
2013-11-01 01:11:00,54.0,52.0,30.31,SSW,201,0.0,0.0,93,0.00,,,0.00,,2013-11-01 08:11:00,
2013-11-01 01:21:00,54.0,52.0,30.31,SSW,201,0.0,0.0,93,0.00,,,0.00,,2013-11-01 08:21:00,
2013-11-01 01:42:00,53.0,51.0,30.31,SSW,201,0.0,0.0,93,0.00,,,0.00,,2013-11-01 08:42:00,
2013-11-01 01:52:00,53.0,51.0,30.31,SSW,201,0.0,0.0,93,0.00,,,0.00,,2013-11-01 08:52:00,
2013-11-01 02:11:00,53.0,51.0,30.30,SSW,201,0.0,0.0,94,0.00,,,0.00,,2013-11-01 09:11:00,
2013-11-01 02:21:00,53.0,51.0,30.30,SSW,201,0.0,0.0,94,0.00,,,0.00,,2013-11-01 09:21:00,
2013-11-01 02:33:00,53.0,51.0,30.30,SSW,201,0.0,0.0,94,0.00,,,0.00,,2013-11-01 09:33:00,
2013-11-01 03:42:00,52.0,50.0,30.30,SSW,201,0.0,0.0,93,0.00,,,0.00,,2013-11-01 10:42:00,
2013-11-01 03:53:00,52.0,50.0,30.30,SSW,201,0.0,0.0,93,0.00,,,0.00,,2013-11-01 10:53:00,
2013-11-01 04:12:00,51.0,49.0,30.29,SSW,201,0.0,0.0,93,0.00,,,0.00,,2013-11-01 11:12:00,
2013-11-01 04:21:00,51.0,49.0,30.29,SSW,201,0.0,0.0,93,0.00,,,0.00,,2013-11-01 11:21:00,
2013-11-01 04:42:00,51.0,49.0,30.28,SSW,201,0.0,0.0,93,0.00,,,0.00,,2013-11-01 11:42:00,
2013-11-01 04:52:00,51.0,49.0,30.28,SSW,201,0.0,0.0,93,0.00,,,0.00,,2013-11-01 11:52:00,
2013-11-01 05:12:00,50.0,48.0,30.27,SSW,201,0.0,0.0,93,0.00,,,0.00,,2013-11-01 12:12:00,
2013-11-01 05:22:00,50.0,48.0,30.27,SSW,201,0.0,0.0,93,0.00,,,0.00,,2013-11-01 12:22:00,
2013-11-01 05:42:00,49.0,47.0,30.27,SSW,200,0.0,0.0,93,0.00,,,0.00,,2013-11-01 12:42:00,
2013-11-01 05:52:00,49.0,47.0,30.27,SSW,200,0.0,0.0,93,0.00,,,0.00,,2013-11-01 12:52:00,
2013-11-01 06:12:00,49.0,47.0,30.27,SSW,201,0.0,0.0,92,0.00,,,0.00,,2013-11-01 13:12:00,
2013-11-01 06:22:00,49.0,47.0,30.27,SSW,201,0.0,0.0,92,0.00,,,0.00,,2013-11-01 13:22:00,
2013-11-01 06:42:00,48.0,46.0,30.27,SSW,201,0.0,0.0,92,0.00,,,0.00,,2013-11-01 13:42:00,
2013-11-01 06:52:00,48.0,46.0,30.27,SSW,201,0.0,0.0,92,0.00,,,0.00,,2013-11-01 13:52:00,
2013-11-01 07:11:00,47.0,45.0,30.27,SSW,201,0.0,0.0,92,0.00,,,0.00,,2013-11-01 14:11:00,
2013-11-01 07:21:00,47.0,45.0,30.27,SSW,201,0.0,0.0,92,0.00,,,0.00,,2013-11-01 14:21:00,
2013-11-01 07:42:00,46.0,44.0,30.26,SSW,201,0.0,0.0,92,0.00,,,0.00,,2013-11-01 14:42:00,
2013-11-01 07:52:00,46.0,44.0,30.26,SSW,201,0.0,0.0,92,0.00,,,0.00,,2013-11-01 14:52:00,
2013-11-01 08:11:00,46.0,44.0,30.26,SSW,201,0.0,0.0,92,0.00,,,0.00,,2013-11-01 15:11:00,
2013-11-01 08:21:00,46.0,44.0,30.26,SSW,201,0.0,0.0,92,0.00,,,0.00,,2013-11-01 15:21:00,
2013-11-01 08:44:00,46.0,44.0,30.26,SSW,201,0.0,0.0,93,0.00,,,0.00,,2013-11-01 15:44:00,
2013-11-01 08:54:00,46.0,44.0,30.26,SSW,201,0.0,0.0,93,0.00,,,0.00,,2013-11-01 15:54:00,
2013-11-01 09:12:00,45.0,43.0,30.27,SSW,201,0.0,0.0,93,0.00,,,0.00,,2013-11-01 16:12:00,
2013-11-01 09:23:00,45.0,43.0,30.27,SSW,201,0.0,0.0,93,0.00,,,0.00,,2013-11-01 16:23:00,
2013-11-01 09:43:00,46.0,44.0,30.27,SSW,201,0.0,0.0,93,0.00,,,0.00,,2013-11-01 16:43:00,
2013-11-01 09:53:00,46.0,44.0,30.27,SSW,201,0.0,0.0,93,0.00,,,0.00,,2013-11-01 16:53:00,
2013-11-01 10:12:00,48.0,47.0,30.26,SSW,201,0.0,0.0,95,0.00,,,0.00,,2013-11-01 17:12:00,
2013-11-01 10:22:00,48.0,47.0,30.26,SSW,201,0.0,0.0,95,0.00,,,0.00,,2013-11-01 17:22:00,
2013-11-01 10:43:00,52.0,50.0,30.25,SSW,201,0.0,1.0,93,0.00,,,0.00,,2013-11-01 17:43:00,
2013-11-01 10:52:00,52.0,50.0,30.25,SSW,201,0.0,1.0,93,0.00,,,0.00,,2013-11-01 17:52:00,
2013-11-01 11:12:00,57.0,54.0,30.24,SSW,201,0.0,0.0,89,0.00,,,0.00,,2013-11-01 18:12:00,
2013-11-01 11:22:00,57.0,54.0,30.24,SSW,201,0.0,0.0,89,0.00,,,0.00,,2013-11-01 18:22:00,
2013-11-01 11:42:00,61.0,55.0,30.23,SW,217,2.0,2.0,81,0.00,,,0.00,,2013-11-01 18:42:00,
2013-11-01 11:52:00,61.0,55.0,30.23,SW,217,2.0,2.0,81,0.00,,,0.00,,2013-11-01 18:52:00,
2013-11-01 14:11:00,69.0,57.0,30.19,WNW,283,1.0,3.0,66,0.00,,,0.00,,2013-11-01 21:11:00,
2013-11-01 14:21:00,69.0,57.0,30.19,WNW,283,1.0,3.0,66,0.00,,,0.00,,2013-11-01 21:21:00,
2013-11-01 14:43:00,68.0,57.0,30.17,WNW,291,2.0,3.0,68,0.00,,,0.00,,2013-11-01 21:43:00,
2013-11-01 14:55:00,68.0,57.0,30.17,WNW,291,2.0,3.0,68,0.00,,,0.00,,2013-11-01 21:55:00,
2013-11-01 15:13:00,66.0,56.0,30.16,NW,309,3.0,3.0,71,0.00,,,0.00,,2013-11-01 22:13:00,
2013-11-01 15:24:00,66.0,56.0,30.16,NW,309,3.0,3.0,71,0.00,,,0.00,,2013-11-01 22:24:00,
2013-11-01 15:42:00,66.0,57.0,30.16,NW,309,1.0,2.0,72,0.00,,,0.00,,2013-11-01 22:42:00,
2013-11-01 15:53:00,66.0,57.0,30.16,NW,309,1.0,2.0,72,0.00,,,0.00,,2013-11-01 22:53:00,
2013-11-01 16:12:00,65.0,55.0,30.16,NW,311,2.0,4.0,71,0.00,,,0.00,,2013-11-01 23:12:00,
2013-11-01 16:22:00,65.0,55.0,30.16,NW,311,2.0,4.0,71,0.00,,,0.00,,2013-11-01 23:22:00,
2013-11-01 16:42:00,63.0,54.0,30.16,NW,311,1.0,4.0,73,0.00,,,0.00,,2013-11-01 23:42:00,
2013-11-01 16:53:00,63.0,54.0,30.16,NW,311,1.0,4.0,73,0.00,,,0.00,,2013-11-01 23:53:00,
2013-11-01 17:11:00,63.0,54.0,30.16,NW,311,2.0,3.0,73,0.00,,,0.00,,2013-11-02 00:11:00,
2013-11-01 17:21:00,63.0,54.0,30.16,NW,311,2.0,3.0,73,0.00,,,0.00,,2013-11-02 00:21:00,
2013-11-01 17:42:00,61.0,53.0,30.14,NW,309,2.0,2.0,76,0.00,,,0.00,,2013-11-02 00:42:00,
2013-11-01 17:52:00,61.0,53.0,30.14,NW,309,2.0,2.0,76,0.00,,,0.00,,2013-11-02 00:52:00,
2013-11-01 18:12:00,60.0,53.0,30.14,NW,309,1.0,2.0,77,0.00,,,0.00,,2013-11-02 01:12:00,
2013-11-01 18:21:00,60.0,53.0,30.14,NW,309,1.0,2.0,77,0.00,,,0.00,,2013-11-02 01:21:00,
2013-11-01 18:42:00,59.0,53.0,30.13,NW,309,0.0,1.0,80,0.00,,,0.00,,2013-11-02 01:42:00,
2013-11-01 18:52:00,59.0,53.0,30.13,NW,309,0.0,1.0,80,0.00,,,0.00,,2013-11-02 01:52:00,
2013-11-01 19:11:00,58.0,52.0,30.11,NW,309,1.0,1.0,81,0.00,,,0.00,,2013-11-02 02:11:00,
2013-11-01 19:22:00,58.0,52.0,30.11,NW,309,1.0,1.0,81,0.00,,,0.00,,2013-11-02 02:22:00,
2013-11-01 19:42:00,56.0,51.0,30.10,NW,309,0.0,1.0,84,0.00,,,0.00,,2013-11-02 02:42:00,
2013-11-01 19:53:00,56.0,51.0,30.10,NW,309,0.0,1.0,84,0.00,,,0.00,,2013-11-02 02:53:00,
2013-11-01 20:11:00,55.0,51.0,30.10,NW,309,0.0,0.0,85,0.00,,,0.00,,2013-11-02 03:11:00,
2013-11-01 20:21:00,55.0,51.0,30.10,NW,309,0.0,0.0,85,0.00,,,0.00,,2013-11-02 03:21:00,
2013-11-01 20:44:00,54.0,50.0,30.09,NW,309,0.0,2.0,87,0.00,,,0.00,,2013-11-02 03:44:00,
2013-11-01 20:53:00,54.0,50.0,30.09,NW,309,0.0,2.0,87,0.00,,,0.00,,2013-11-02 03:53:00,
2013-11-01 21:13:00,53.0,49.0,30.08,NW,309,2.0,2.0,87,0.00,,,0.00,,2013-11-02 04:13:00,
2013-11-01 21:24:00,53.0,49.0,30.08,NW,309,2.0,2.0,87,0.00,,,0.00,,2013-11-02 04:24:00,
2013-11-01 21:44:00,52.0,49.0,30.08,NW,310,0.0,1.0,89,0.00,,,0.00,,2013-11-02 04:44:00,
2013-11-01 21:54:00,52.0,49.0,30.08,NW,310,0.0,1.0,89,0.00,,,0.00,,2013-11-02 04:54:00,
2013-11-01 22:13:00,52.0,49.0,30.08,NW,309,0.0,0.0,90,0.00,,,0.00,,2013-11-02 05:13:00,
2013-11-01 22:22:00,52.0,49.0,30.08,NW,309,0.0,0.0,90,0.00,,,0.00,,2013-11-02 05:22:00,
2013-11-01 22:42:00,52.0,49.0,30.08,NW,309,1.0,1.0,90,0.00,,,0.00,,2013-11-02 05:42:00,
2013-11-01 22:52:00,52.0,49.0,30.08,NW,309,1.0,1.0,90,0.00,,,0.00,,2013-11-02 05:52:00,
2013-11-01 23:12:00,51.0,48.0,30.08,NW,309,0.0,2.0,90,0.00,,,0.00,,2013-11-02 06:12:00,
2013-11-01 23:22:00,51.0,48.0,30.08,NW,309,0.0,2.0,90,0.00,,,0.00,,2013-11-02 06:22:00,
2013-11-01 23:43:00,51.0,48.0,30.06,NW,309,0.0,1.0,91,0.00,,,0.00,,2013-11-02 06:43:00,
2013-11-01 23:52:00,51.0,48.0,30.06,NW,309,0.0,1.0,91,0.00,,,0.00,,2013-11-02 06:52:00,